Time;durP1;ratioP1;P1;durP2;ratioP2;P2;SDS_P1;SDS_P2;PMS_P1;PMS_P2;Temp;Humidity;BMP_temperature;BMP_pressure;BME280_temperature;BME280_humidity;BME280_pressure;Samples;Min_cycle;Max_cycle;Signal;HPM_P1;HPM_P2
2023/05/13 07:46:29;;;;;;;0.70;0.70;;;;;;;;;;7432934;19;20168;-93
2023/05/13 07:48:56;;;;;;;0.57;0.57;;;;;;;;;;7430830;19;20186;-92
2023/05/13 07:51:22;;;;;;;1.90;1.00;;;;;;;;;;7430742;19;20208;-93
2023/05/13 07:53:51;;;;;;;0.63;0.63;;;;;;;;;;7428225;19;20237;-92
2023/05/13 07:56:18;;;;;;;1.90;0.73;;;;;;;;;;7429583;19;20184;-92
2023/05/13 07:58:44;;;;;;;0.70;0.70;;;;;;;;;;7428256;19;20191;-92
2023/05/13 08:01:11;;;;;;;0.52;0.52;;;;;;;;;;7414558;19;20192;-91
2023/05/13 08:03:38;;;;;;;0.30;0.30;;;;;;;;;;7398255;19;20717;-90
2023/05/13 08:06:05;;;;;;;0.60;0.50;;;;;;;;;;7398236;19;20184;-92
2023/05/13 08:08:32;;;;;;;0.80;0.80;;;;;;;;;;7395979;19;20224;-92
2023/05/13 08:10:58;;;;;;;0.40;0.40;;;;;;;;;;7396355;19;20220;-92
2023/05/13 08:13:25;;;;;;;0.60;0.60;;;;;;;;;;7395642;19;20196;-90
2023/05/13 08:15:52;;;;;;;0.47;0.47;;;;;;;;;;7390981;19;20566;-91
2023/05/13 08:18:19;;;;;;;0.70;0.70;;;;;;;;;;7395120;19;20204;-93
2023/05/13 08:20:46;;;;;;;0.50;0.50;;;;;;;;;;7391820;19;20657;-91
2023/05/13 08:23:12;;;;;;;0.50;0.50;;;;;;;;;;7394524;19;20208;-91
2023/05/13 08:25:39;;;;;;;0.60;0.43;;;;;;;;;;7395306;19;20525;-92
2023/05/13 08:28:06;;;;;;;0.73;0.73;;;;;;;;;;7395116;19;20200;-91
2023/05/13 08:30:32;;;;;;;0.30;0.30;;;;;;;;;;7393865;19;20216;-91
2023/05/13 08:32:59;;;;;;;0.95;0.95;;;;;;;;;;7395496;19;20220;-92
2023/05/13 08:35:26;;;;;;;0.75;0.75;;;;;;;;;;7392646;19;20209;-92
2023/05/13 08:37:52;;;;;;;0.88;0.88;;;;;;;;;;7391185;19;20200;-92
2023/05/13 08:40:20;;;;;;;0.40;0.40;;;;;;;;;;7393316;19;20188;-92
2023/05/13 08:42:48;;;;;;;0.88;0.88;;;;;;;;;;7394707;19;20213;-92
2023/05/13 08:45:16;;;;;;;0.43;0.43;;;;;;;;;;7395421;19;20204;-92
2023/05/13 08:47:55;;;;;;;0.40;0.40;;;;;;;;;;7393838;19;20200;-91
2023/05/13 08:50:23;;;;;;;0.38;0.38;;;;;;;;;;7396117;19;20196;-91
2023/05/13 08:52:53;;;;;;;0.60;0.60;;;;;;;;;;7394626;19;20649;-92
2023/05/13 08:55:21;;;;;;;0.80;0.80;;;;;;;;;;7394376;19;20200;-91
2023/05/13 08:57:49;;;;;;;0.50;0.50;;;;;;;;;;7387423;19;20213;-92
2023/05/13 09:00:16;;;;;;;0.93;0.82;;;;;;;;;;7383503;19;20188;-91
2023/05/13 09:02:45;;;;;;;0.40;0.40;;;;;;;;;;7387717;19;20192;-92
2023/05/13 09:05:12;;;;;;;0.68;0.68;;;;;;;;;;7387794;19;20203;-92
2023/05/13 09:07:38;;;;;;;0.47;0.47;;;;;;;;;;7385334;19;20196;-91
2023/05/13 09:10:06;;;;;;;0.45;0.45;;;;;;;;;;7390862;19;20196;-92
2023/05/13 09:12:53;;;;;;;0.60;0.60;;;;;;;;;;7389779;19;20188;-92
2023/05/13 09:15:25;;;;;;;0.60;0.60;;;;;;;;;;7388724;19;20552;-93
2023/05/13 09:17:57;;;;;;;0.47;0.47;;;;;;;;;;7397130;19;20303;-93
2023/05/13 09:20:26;;;;;;;0.98;0.80;;;;;;;;;;7401597;19;20209;-92
2023/05/13 09:23:08;;;;;;;0.40;0.40;;;;;;;;;;7393036;19;20192;-92
2023/05/13 09:25:36;;;;;;;0.40;0.40;;;;;;;;;;7392042;19;20226;-92
2023/05/13 09:28:05;;;;;;;0.70;0.70;;;;;;;;;;7390410;19;20220;-93
2023/05/13 09:30:38;;;;;;;0.60;0.45;;;;;;;;;;7392632;19;20220;-92
2023/05/13 09:33:08;;;;;;;0.30;0.30;;;;;;;;;;7392375;19;20565;-91
2023/05/13 09:35:44;;;;;;;0.50;0.50;;;;;;;;;;7395153;19;20205;-92
2023/05/13 09:38:18;;;;;;;0.45;0.45;;;;;;;;;;7392796;19;20231;-91
2023/05/13 09:40:52;;;;;;;0.40;0.40;;;;;;;;;;7391730;19;20208;-91
2023/05/13 09:43:23;;;;;;;0.60;0.50;;;;;;;;;;7391652;19;20192;-92
2023/05/13 09:45:54;;;;;;;0.60;0.60;;;;;;;;;;7390400;19;20526;-92
2023/05/13 09:48:25;;;;;;;0.88;0.88;;;;;;;;;;7390928;19;20204;-93
2023/05/13 09:50:52;;;;;;;0.52;0.52;;;;;;;;;;7386906;19;20220;-92
2023/05/13 09:53:22;;;;;;;0.32;0.32;;;;;;;;;;7392158;19;20202;-91
2023/05/13 09:55:51;;;;;;;0.40;0.40;;;;;;;;;;7392566;19;20205;-91
2023/05/13 09:58:21;;;;;;;0.50;0.50;;;;;;;;;;7394783;19;20224;-91
2023/05/13 10:00:48;;;;;;;0.63;0.63;;;;;;;;;;7392503;19;20184;-91
2023/05/13 10:03:15;;;;;;;0.70;0.70;;;;;;;;;;7393026;19;20192;-92
2023/05/13 10:05:42;;;;;;;0.50;0.50;;;;;;;;;;7394524;19;20311;-91
2023/05/13 10:08:10;;;;;;;3.78;0.52;;;;;;;;;;7392777;19;20200;-91
2023/05/13 10:10:38;;;;;;;0.40;0.40;;;;;;;;;;7391532;19;20216;-92
2023/05/13 10:13:07;;;;;;;0.50;0.50;;;;;;;;;;7392045;19;20209;-92
2023/05/13 10:15:34;;;;;;;0.75;0.75;;;;;;;;;;7389689;19;20188;-92
2023/05/13 10:18:01;;;;;;;0.85;0.85;;;;;;;;;;7389258;19;20204;-90
2023/05/13 10:20:31;;;;;;;0.63;0.63;;;;;;;;;;7392622;19;20652;-92
2023/05/13 10:22:58;;;;;;;0.60;0.60;;;;;;;;;;7390542;19;20211;-92
2023/05/13 10:25:25;;;;;;;0.30;0.30;;;;;;;;;;7390681;19;20188;-92
2023/05/13 10:27:53;;;;;;;0.85;0.85;;;;;;;;;;7386442;19;20579;-91
2023/05/13 10:30:25;;;;;;;0.30;0.30;;;;;;;;;;7390416;19;20196;-90
2023/05/13 10:32:52;;;;;;;0.52;0.52;;;;;;;;;;7395070;19;20199;-92
2023/05/13 10:35:21;;;;;;;0.57;0.57;;;;;;;;;;7393624;19;20209;-91
2023/05/13 10:38:06;;;;;;;1.35;0.88;;;;;;;;;;7390460;19;20203;-91
2023/05/13 10:41:11;;;;;;;0.35;0.35;;;;;;;;;;7392229;19;20188;-92
2023/05/13 10:43:38;;;;;;;0.75;0.75;;;;;;;;;;7389651;19;20232;-91
2023/05/13 10:46:06;;;;;;;0.70;0.70;;;;;;;;;;7391964;19;20184;-92
2023/05/13 10:48:57;;;;;;;0.35;0.35;;;;;;;;;;7389213;19;20824;-92
2023/05/13 10:51:25;;;;;;;0.70;0.70;;;;;;;;;;7389290;19;20536;-92
2023/05/13 10:53:57;;;;;;;0.40;0.40;;;;;;;;;;7399317;19;20212;-90
2023/05/13 10:56:26;;;;;;;0.52;0.52;;;;;;;;;;7401850;19;20200;-92
2023/05/13 10:59:01;;;;;;;0.45;0.45;;;;;;;;;;7397738;19;20233;-91
2023/05/13 11:01:30;;;;;;;0.63;0.55;;;;;;;;;;7393867;19;20198;-92
2023/05/13 11:03:59;;;;;;;0.43;0.43;;;;;;;;;;7391591;19;20608;-91
2023/05/13 11:06:34;;;;;;;0.43;0.43;;;;;;;;;;7393613;19;20656;-91
2023/05/13 11:09:04;;;;;;;0.75;0.75;;;;;;;;;;7393246;19;20175;-92
2023/05/13 11:11:32;;;;;;;0.80;0.80;;;;;;;;;;7391708;19;20703;-92
2023/05/13 11:14:07;;;;;;;0.40;0.40;;;;;;;;;;7391257;19;20191;-91
2023/05/13 11:16:35;;;;;;;0.30;0.30;;;;;;;;;;7401592;19;20219;-92
2023/05/13 11:19:03;;;;;;;0.40;0.40;;;;;;;;;;7401584;19;20205;-91
2023/05/13 11:21:32;;;;;;;0.32;0.32;;;;;;;;;;7403626;19;20550;-92
2023/05/13 11:24:04;;;;;;;0.70;0.70;;;;;;;;;;7395377;19;20196;-91
2023/05/13 11:26:50;;;;;;;0.55;0.55;;;;;;;;;;7390584;19;20192;-91
2023/05/13 11:29:33;;;;;;;1.85;0.70;;;;;;;;;;7387422;19;20191;-92
2023/05/13 11:32:02;;;;;;;0.63;0.63;;;;;;;;;;7388580;19;20224;-92
2023/05/13 11:34:30;;;;;;;0.57;0.57;;;;;;;;;;7391068;19;20221;-92
2023/05/13 11:37:07;;;;;;;0.40;0.40;;;;;;;;;;7391971;19;20684;-91
2023/05/13 11:39:35;;;;;;;0.55;0.55;;;;;;;;;;7393705;19;20200;-91
2023/05/13 11:42:06;;;;;;;0.50;0.50;;;;;;;;;;7394921;19;20208;-91
2023/05/13 11:44:33;;;;;;;0.77;0.77;;;;;;;;;;7394973;19;20196;-91
2023/05/13 11:47:04;;;;;;;0.40;0.40;;;;;;;;;;7393299;19;20189;-91
2023/05/13 11:49:42;;;;;;;0.65;0.65;;;;;;;;;;7395037;19;20185;-90
2023/05/13 11:52:16;;;;;;;0.88;0.88;;;;;;;;;;7390842;19;20652;-90
2023/05/13 11:54:52;;;;;;;0.93;0.93;;;;;;;;;;7395283;19;20184;-91
2023/05/13 11:57:23;;;;;;;0.63;0.63;;;;;;;;;;7398949;19;20223;-91
2023/05/13 11:59:50;;;;;;;0.80;0.80;;;;;;;;;;7399318;19;20208;-91
2023/05/13 12:02:32;;;;;;;1.10;1.10;;;;;;;;;;7398740;19;20220;-92
2023/05/13 12:05:04;;;;;;;0.43;0.43;;;;;;;;;;7398177;19;20196;-92
2023/05/13 12:07:31;;;;;;;0.55;0.55;;;;;;;;;;7396114;19;20587;-91
